sensor_id;sensor_type;location;lat;lon;timestamp;P1;durP1;ratioP1;P2;durP2;ratioP2
63738;SDS011;68816;45.558;10.070;2023-06-22T00:01:09;17.15;;;9.98;;
63738;SDS011;68816;45.558;10.070;2023-06-22T00:03:35;16.83;;;9.55;;
63738;SDS011;68816;45.558;10.070;2023-06-22T00:06:00;21.23;;;10.20;;
63738;SDS011;68816;45.558;10.070;2023-06-22T00:08:26;14.85;;;10.43;;
63738;SDS011;68816;45.558;10.070;2023-06-22T00:10:51;15.57;;;9.82;;
63738;SDS011;68816;45.558;10.070;2023-06-22T00:13:17;16.48;;;9.90;;
63738;SDS011;68816;45.558;10.070;2023-06-22T00:15:43;19.30;;;9.82;;
63738;SDS011;68816;45.558;10.070;2023-06-22T00:18:09;15.45;;;9.60;;
63738;SDS011;68816;45.558;10.070;2023-06-22T00:20:36;23.48;;;10.15;;
63738;SDS011;68816;45.558;10.070;2023-06-22T00:23:03;20.08;;;10.32;;
63738;SDS011;68816;45.558;10.070;2023-06-22T00:25:33;22.10;;;10.02;;
63738;SDS011;68816;45.558;10.070;2023-06-22T00:28:05;16.52;;;9.68;;
63738;SDS011;68816;45.558;10.070;2023-06-22T00:30:31;16.48;;;9.85;;
63738;SDS011;68816;45.558;10.070;2023-06-22T00:32:57;16.55;;;9.93;;
63738;SDS011;68816;45.558;10.070;2023-06-22T00:35:23;15.93;;;9.80;;
63738;SDS011;68816;45.558;10.070;2023-06-22T00:37:53;17.52;;;10.25;;
63738;SDS011;68816;45.558;10.070;2023-06-22T00:40:25;15.93;;;10.30;;
63738;SDS011;68816;45.558;10.070;2023-06-22T00:42:54;17.23;;;10.02;;
63738;SDS011;68816;45.558;10.070;2023-06-22T00:45:20;17.75;;;9.93;;
63738;SDS011;68816;45.558;10.070;2023-06-22T00:47:48;13.95;;;9.95;;
63738;SDS011;68816;45.558;10.070;2023-06-22T00:50:16;14.98;;;9.80;;
63738;SDS011;68816;45.558;10.070;2023-06-22T00:52:46;17.08;;;9.90;;
63738;SDS011;68816;45.558;10.070;2023-06-22T00:55:17;20.23;;;9.27;;
63738;SDS011;68816;45.558;10.070;2023-06-22T00:57:45;15.45;;;9.63;;
63738;SDS011;68816;45.558;10.070;2023-06-22T01:00:11;16.95;;;9.80;;
63738;SDS011;68816;45.558;10.070;2023-06-22T01:02:44;14.83;;;10.37;;
63738;SDS011;68816;45.558;10.070;2023-06-22T01:05:14;20.50;;;10.18;;
63738;SDS011;68816;45.558;10.070;2023-06-22T01:12:55;16.52;;;9.75;;
63738;SDS011;68816;45.558;10.070;2023-06-22T01:18:02;19.30;;;10.70;;
63738;SDS011;68816;45.558;10.070;2023-06-22T01:20:30;15.65;;;10.02;;
63738;SDS011;68816;45.558;10.070;2023-06-22T01:23:02;17.60;;;10.23;;
63738;SDS011;68816;45.558;10.070;2023-06-22T01:25:43;16.75;;;10.68;;
63738;SDS011;68816;45.558;10.070;2023-06-22T01:31:16;16.80;;;9.98;;
63738;SDS011;68816;45.558;10.070;2023-06-22T01:33:43;16.58;;;10.55;;
63738;SDS011;68816;45.558;10.070;2023-06-22T01:36:11;19.02;;;10.25;;
63738;SDS011;68816;45.558;10.070;2023-06-22T01:38:39;15.18;;;10.20;;
63738;SDS011;68816;45.558;10.070;2023-06-22T01:41:05;19.30;;;10.38;;
63738;SDS011;68816;45.558;10.070;2023-06-22T01:43:31;19.25;;;11.07;;
63738;SDS011;68816;45.558;10.070;2023-06-22T01:45:59;17.45;;;9.80;;
63738;SDS011;68816;45.558;10.070;2023-06-22T01:48:26;19.50;;;11.35;;
63738;SDS011;68816;45.558;10.070;2023-06-22T01:50:52;18.17;;;11.38;;
63738;SDS011;68816;45.558;10.070;2023-06-22T01:53:20;18.73;;;11.40;;
63738;SDS011;68816;45.558;10.070;2023-06-22T01:55:49;21.52;;;10.93;;
63738;SDS011;68816;45.558;10.070;2023-06-22T01:58:14;17.65;;;11.55;;
63738;SDS011;68816;45.558;10.070;2023-06-22T02:00:43;18.35;;;10.82;;
63738;SDS011;68816;45.558;10.070;2023-06-22T02:03:13;14.90;;;10.15;;
63738;SDS011;68816;45.558;10.070;2023-06-22T02:05:52;18.50;;;10.27;;
63738;SDS011;68816;45.558;10.070;2023-06-22T02:08:28;24.98;;;10.68;;
63738;SDS011;68816;45.558;10.070;2023-06-22T02:10:57;15.13;;;10.20;;
63738;SDS011;68816;45.558;10.070;2023-06-22T02:13:24;18.75;;;10.73;;
63738;SDS011;68816;45.558;10.070;2023-06-22T02:15:50;19.38;;;10.20;;
63738;SDS011;68816;45.558;10.070;2023-06-22T02:18:16;16.30;;;10.70;;
63738;SDS011;68816;45.558;10.070;2023-06-22T02:20:42;21.33;;;10.05;;
63738;SDS011;68816;45.558;10.070;2023-06-22T02:23:08;19.45;;;11.00;;
63738;SDS011;68816;45.558;10.070;2023-06-22T02:25:34;18.30;;;10.85;;
63738;SDS011;68816;45.558;10.070;2023-06-22T02:28:00;22.13;;;11.30;;
63738;SDS011;68816;45.558;10.070;2023-06-22T02:30:26;17.27;;;10.60;;
63738;SDS011;68816;45.558;10.070;2023-06-22T02:32:52;17.60;;;11.45;;
63738;SDS011;68816;45.558;10.070;2023-06-22T02:35:24;19.38;;;11.40;;
63738;SDS011;68816;45.558;10.070;2023-06-22T02:37:51;18.33;;;10.88;;
63738;SDS011;68816;45.558;10.070;2023-06-22T02:40:16;20.83;;;11.40;;
63738;SDS011;68816;45.558;10.070;2023-06-22T02:42:42;19.35;;;11.68;;
63738;SDS011;68816;45.558;10.070;2023-06-22T02:45:08;15.15;;;10.90;;
63738;SDS011;68816;45.558;10.070;2023-06-22T02:47:34;25.08;;;12.50;;
63738;SDS011;68816;45.558;10.070;2023-06-22T02:49:59;18.23;;;11.80;;
63738;SDS011;68816;45.558;10.070;2023-06-22T02:52:26;18.40;;;11.52;;
63738;SDS011;68816;45.558;10.070;2023-06-22T02:54:51;21.77;;;11.15;;
63738;SDS011;68816;45.558;10.070;2023-06-22T02:57:17;19.48;;;11.20;;
63738;SDS011;68816;45.558;10.070;2023-06-22T02:59:43;21.25;;;12.00;;
63738;SDS011;68816;45.558;10.070;2023-06-22T03:02:08;16.35;;;10.20;;
63738;SDS011;68816;45.558;10.070;2023-06-22T03:04:34;16.98;;;10.68;;
63738;SDS011;68816;45.558;10.070;2023-06-22T03:07:00;19.85;;;10.15;;
63738;SDS011;68816;45.558;10.070;2023-06-22T03:09:26;16.65;;;10.27;;
63738;SDS011;68816;45.558;10.070;2023-06-22T03:11:53;15.02;;;9.65;;
63738;SDS011;68816;45.558;10.070;2023-06-22T03:14:18;21.17;;;10.63;;
63738;SDS011;68816;45.558;10.070;2023-06-22T03:16:44;19.40;;;10.65;;
63738;SDS011;68816;45.558;10.070;2023-06-22T03:19:09;16.42;;;10.45;;
63738;SDS011;68816;45.558;10.070;2023-06-22T03:21:36;21.42;;;10.30;;
63738;SDS011;68816;45.558;10.070;2023-06-22T03:24:03;19.10;;;10.45;;
63738;SDS011;68816;45.558;10.070;2023-06-22T03:26:30;16.63;;;10.23;;
63738;SDS011;68816;45.558;10.070;2023-06-22T03:28:55;20.63;;;9.75;;
63738;SDS011;68816;45.558;10.070;2023-06-22T03:31:21;18.90;;;10.35;;
63738;SDS011;68816;45.558;10.070;2023-06-22T03:33:49;15.50;;;10.45;;
63738;SDS011;68816;45.558;10.070;2023-06-22T03:36:16;25.60;;;10.13;;
63738;SDS011;68816;45.558;10.070;2023-06-22T03:38:45;19.52;;;9.50;;
63738;SDS011;68816;45.558;10.070;2023-06-22T03:41:11;18.20;;;10.25;;
63738;SDS011;68816;45.558;10.070;2023-06-22T03:43:37;23.65;;;10.90;;
63738;SDS011;68816;45.558;10.070;2023-06-22T03:46:02;20.92;;;10.13;;
63738;SDS011;68816;45.558;10.070;2023-06-22T03:48:27;18.73;;;10.32;;
63738;SDS011;68816;45.558;10.070;2023-06-22T03:50:53;19.33;;;10.25;;
63738;SDS011;68816;45.558;10.070;2023-06-22T03:53:18;14.98;;;9.95;;
63738;SDS011;68816;45.558;10.070;2023-06-22T03:55:50;15.73;;;9.32;;
63738;SDS011;68816;45.558;10.070;2023-06-22T03:58:17;18.70;;;10.45;;
63738;SDS011;68816;45.558;10.070;2023-06-22T04:00:53;19.48;;;10.32;;
63738;SDS011;68816;45.558;10.070;2023-06-22T04:03:18;23.27;;;9.93;;
63738;SDS011;68816;45.558;10.070;2023-06-22T04:05:44;19.92;;;10.13;;
63738;SDS011;68816;45.558;10.070;2023-06-22T04:08:12;19.00;;;9.80;;
63738;SDS011;68816;45.558;10.070;2023-06-22T04:10:38;19.45;;;9.70;;
63738;SDS011;68816;45.558;10.070;2023-06-22T04:13:04;20.40;;;10.25;;
63738;SDS011;68816;45.558;10.070;2023-06-22T04:15:29;18.85;;;9.98;;
63738;SDS011;68816;45.558;10.070;2023-06-22T04:17:55;20.27;;;10.45;;
63738;SDS011;68816;45.558;10.070;2023-06-22T04:20:22;16.95;;;9.73;;
63738;SDS011;68816;45.558;10.070;2023-06-22T04:22:47;23.15;;;10.75;;
63738;SDS011;68816;45.558;10.070;2023-06-22T04:25:13;21.95;;;10.20;;
63738;SDS011;68816;45.558;10.070;2023-06-22T04:27:39;17.02;;;10.25;;
63738;SDS011;68816;45.558;10.070;2023-06-22T04:30:06;22.90;;;10.07;;
63738;SDS011;68816;45.558;10.070;2023-06-22T04:32:33;18.23;;;9.98;;
63738;SDS011;68816;45.558;10.070;2023-06-22T04:35:01;17.85;;;10.80;;
63738;SDS011;68816;45.558;10.070;2023-06-22T04:37:27;16.80;;;10.18;;
63738;SDS011;68816;45.558;10.070;2023-06-22T04:39:53;21.83;;;11.25;;
63738;SDS011;68816;45.558;10.070;2023-06-22T04:42:18;23.00;;;11.43;;
63738;SDS011;68816;45.558;10.070;2023-06-22T04:44:44;19.02;;;10.68;;
63738;SDS011;68816;45.558;10.070;2023-06-22T04:47:09;20.85;;;10.73;;
63738;SDS011;68816;45.558;10.070;2023-06-22T04:49:35;16.92;;;10.40;;
63738;SDS011;68816;45.558;10.070;2023-06-22T04:52:03;18.38;;;10.30;;
63738;SDS011;68816;45.558;10.070;2023-06-22T04:54:30;18.90;;;11.25;;
63738;SDS011;68816;45.558;10.070;2023-06-22T04:57:02;22.13;;;10.65;;
63738;SDS011;68816;45.558;10.070;2023-06-22T04:59:29;19.00;;;10.45;;
63738;SDS011;68816;45.558;10.070;2023-06-22T05:01:55;22.48;;;10.10;;
63738;SDS011;68816;45.558;10.070;2023-06-22T05:04:22;21.17;;;10.30;;
63738;SDS011;68816;45.558;10.070;2023-06-22T05:06:51;23.60;;;9.98;;
63738;SDS011;68816;45.558;10.070;2023-06-22T05:09:17;18.63;;;9.52;;
63738;SDS011;68816;45.558;10.070;2023-06-22T05:11:43;23.55;;;10.40;;
63738;SDS011;68816;45.558;10.070;2023-06-22T05:14:09;21.83;;;10.30;;
63738;SDS011;68816;45.558;10.070;2023-06-22T05:16:36;18.50;;;9.90;;
63738;SDS011;68816;45.558;10.070;2023-06-22T05:19:02;21.70;;;10.07;;
63738;SDS011;68816;45.558;10.070;2023-06-22T05:21:28;20.90;;;9.23;;
63738;SDS011;68816;45.558;10.070;2023-06-22T05:23:55;14.98;;;8.85;;
63738;SDS011;68816;45.558;10.070;2023-06-22T05:26:24;20.73;;;9.20;;
63738;SDS011;68816;45.558;10.070;2023-06-22T05:28:51;18.00;;;9.07;;
63738;SDS011;68816;45.558;10.070;2023-06-22T05:31:18;19.23;;;10.63;;
63738;SDS011;68816;45.558;10.070;2023-06-22T05:33:47;22.75;;;12.38;;
63738;SDS011;68816;45.558;10.070;2023-06-22T05:36:14;24.88;;;13.75;;
63738;SDS011;68816;45.558;10.070;2023-06-22T05:38:40;22.95;;;12.38;;
63738;SDS011;68816;45.558;10.070;2023-06-22T05:41:06;25.00;;;12.63;;
63738;SDS011;68816;45.558;10.070;2023-06-22T05:43:32;26.45;;;12.93;;
63738;SDS011;68816;45.558;10.070;2023-06-22T05:45:59;21.92;;;12.13;;
63738;SDS011;68816;45.558;10.070;2023-06-22T05:48:25;25.20;;;12.38;;
63738;SDS011;68816;45.558;10.070;2023-06-22T05:50:51;20.33;;;11.35;;
63738;SDS011;68816;45.558;10.070;2023-06-22T05:53:16;27.73;;;12.52;;
63738;SDS011;68816;45.558;10.070;2023-06-22T05:55:42;21.40;;;12.13;;
63738;SDS011;68816;45.558;10.070;2023-06-22T05:58:07;22.38;;;11.35;;
63738;SDS011;68816;45.558;10.070;2023-06-22T06:00:33;27.58;;;11.07;;
63738;SDS011;68816;45.558;10.070;2023-06-22T06:02:59;22.77;;;11.25;;
63738;SDS011;68816;45.558;10.070;2023-06-22T06:05:28;22.00;;;12.38;;
63738;SDS011;68816;45.558;10.070;2023-06-22T06:07:57;26.55;;;11.50;;
63738;SDS011;68816;45.558;10.070;2023-06-22T06:10:24;16.55;;;11.02;;
63738;SDS011;68816;45.558;10.070;2023-06-22T06:12:50;19.58;;;12.75;;
63738;SDS011;68816;45.558;10.070;2023-06-22T06:15:15;26.52;;;11.95;;
63738;SDS011;68816;45.558;10.070;2023-06-22T06:17:48;20.23;;;12.43;;
63738;SDS011;68816;45.558;10.070;2023-06-22T06:20:18;26.67;;;12.93;;
63738;SDS011;68816;45.558;10.070;2023-06-22T06:22:45;23.98;;;11.93;;
63738;SDS011;68816;45.558;10.070;2023-06-22T06:25:11;23.42;;;12.82;;
63738;SDS011;68816;45.558;10.070;2023-06-22T06:27:41;22.73;;;13.25;;
63738;SDS011;68816;45.558;10.070;2023-06-22T06:30:11;21.33;;;12.75;;
63738;SDS011;68816;45.558;10.070;2023-06-22T06:32:37;25.83;;;13.63;;
63738;SDS011;68816;45.558;10.070;2023-06-22T06:35:04;26.90;;;13.82;;
63738;SDS011;68816;45.558;10.070;2023-06-22T06:37:31;25.95;;;12.68;;
63738;SDS011;68816;45.558;10.070;2023-06-22T06:39:56;24.50;;;11.55;;
63738;SDS011;68816;45.558;10.070;2023-06-22T06:42:22;26.77;;;13.30;;
63738;SDS011;68816;45.558;10.070;2023-06-22T06:44:49;22.02;;;12.95;;
63738;SDS011;68816;45.558;10.070;2023-06-22T06:47:15;25.80;;;13.00;;
63738;SDS011;68816;45.558;10.070;2023-06-22T06:49:42;30.50;;;13.45;;
63738;SDS011;68816;45.558;10.070;2023-06-22T06:52:07;32.65;;;14.35;;
63738;SDS011;68816;45.558;10.070;2023-06-22T06:54:33;28.30;;;14.30;;
63738;SDS011;68816;45.558;10.070;2023-06-22T06:56:58;26.02;;;14.80;;
63738;SDS011;68816;45.558;10.070;2023-06-22T06:59:24;28.45;;;14.70;;
63738;SDS011;68816;45.558;10.070;2023-06-22T07:01:49;27.98;;;14.43;;
63738;SDS011;68816;45.558;10.070;2023-06-22T07:04:15;24.35;;;14.55;;
63738;SDS011;68816;45.558;10.070;2023-06-22T07:06:40;26.98;;;15.35;;
63738;SDS011;68816;45.558;10.070;2023-06-22T07:09:07;23.13;;;15.02;;
63738;SDS011;68816;45.558;10.070;2023-06-22T07:11:32;25.70;;;15.95;;
63738;SDS011;68816;45.558;10.070;2023-06-22T07:13:58;28.67;;;16.40;;
63738;SDS011;68816;45.558;10.070;2023-06-22T07:16:25;25.10;;;14.68;;
63738;SDS011;68816;45.558;10.070;2023-06-22T07:18:52;25.30;;;16.38;;
63738;SDS011;68816;45.558;10.070;2023-06-22T07:21:18;25.40;;;16.67;;
63738;SDS011;68816;45.558;10.070;2023-06-22T07:23:43;27.05;;;18.20;;
63738;SDS011;68816;45.558;10.070;2023-06-22T07:26:09;26.67;;;17.63;;
63738;SDS011;68816;45.558;10.070;2023-06-22T07:28:34;27.50;;;17.75;;
63738;SDS011;68816;45.558;10.070;2023-06-22T07:31:03;28.63;;;18.63;;
63738;SDS011;68816;45.558;10.070;2023-06-22T07:33:31;28.65;;;18.08;;
63738;SDS011;68816;45.558;10.070;2023-06-22T07:35:57;25.50;;;16.48;;
63738;SDS011;68816;45.558;10.070;2023-06-22T07:38:22;26.52;;;17.17;;
63738;SDS011;68816;45.558;10.070;2023-06-22T07:40:48;24.30;;;15.18;;
63738;SDS011;68816;45.558;10.070;2023-06-22T07:43:13;28.58;;;18.23;;
63738;SDS011;68816;45.558;10.070;2023-06-22T07:45:39;29.35;;;18.02;;
63738;SDS011;68816;45.558;10.070;2023-06-22T07:48:06;26.23;;;16.30;;
63738;SDS011;68816;45.558;10.070;2023-06-22T07:50:34;29.95;;;16.45;;
63738;SDS011;68816;45.558;10.070;2023-06-22T07:52:59;27.63;;;17.08;;
63738;SDS011;68816;45.558;10.070;2023-06-22T07:55:25;25.88;;;16.38;;
63738;SDS011;68816;45.558;10.070;2023-06-22T07:57:50;27.27;;;16.83;;
63738;SDS011;68816;45.558;10.070;2023-06-22T08:00:17;34.30;;;19.27;;
63738;SDS011;68816;45.558;10.070;2023-06-22T08:02:44;26.77;;;17.73;;
63738;SDS011;68816;45.558;10.070;2023-06-22T08:05:11;27.95;;;17.95;;
63738;SDS011;68816;45.558;10.070;2023-06-22T08:07:37;32.00;;;16.55;;
63738;SDS011;68816;45.558;10.070;2023-06-22T08:10:04;27.42;;;13.70;;
63738;SDS011;68816;45.558;10.070;2023-06-22T08:12:30;23.73;;;9.50;;
63738;SDS011;68816;45.558;10.070;2023-06-22T08:14:56;17.45;;;9.25;;
63738;SDS011;68816;45.558;10.070;2023-06-22T08:17:22;18.90;;;9.55;;
63738;SDS011;68816;45.558;10.070;2023-06-22T08:19:48;19.90;;;9.70;;
63738;SDS011;68816;45.558;10.070;2023-06-22T08:22:15;16.77;;;10.10;;
63738;SDS011;68816;45.558;10.070;2023-06-22T08:24:41;17.35;;;9.68;;
63738;SDS011;68816;45.558;10.070;2023-06-22T08:27:07;15.95;;;8.38;;
63738;SDS011;68816;45.558;10.070;2023-06-22T08:29:38;22.33;;;9.85;;
63738;SDS011;68816;45.558;10.070;2023-06-22T08:32:04;19.75;;;9.68;;
63738;SDS011;68816;45.558;10.070;2023-06-22T08:34:30;22.27;;;10.10;;
63738;SDS011;68816;45.558;10.070;2023-06-22T08:36:56;17.05;;;8.98;;
63738;SDS011;68816;45.558;10.070;2023-06-22T08:39:21;19.88;;;9.10;;
63738;SDS011;68816;45.558;10.070;2023-06-22T08:41:47;20.65;;;9.32;;
63738;SDS011;68816;45.558;10.070;2023-06-22T08:44:13;19.95;;;9.80;;
63738;SDS011;68816;45.558;10.070;2023-06-22T08:46:39;21.02;;;9.15;;
63738;SDS011;68816;45.558;10.070;2023-06-22T08:49:06;16.77;;;9.32;;
63738;SDS011;68816;45.558;10.070;2023-06-22T08:51:32;17.50;;;9.75;;
63738;SDS011;68816;45.558;10.070;2023-06-22T08:53:57;13.60;;;9.23;;
63738;SDS011;68816;45.558;10.070;2023-06-22T08:56:23;15.73;;;8.82;;
63738;SDS011;68816;45.558;10.070;2023-06-22T08:58:48;14.20;;;9.10;;
63738;SDS011;68816;45.558;10.070;2023-06-22T09:01:14;19.17;;;9.25;;
63738;SDS011;68816;45.558;10.070;2023-06-22T09:03:40;15.27;;;8.98;;
63738;SDS011;68816;45.558;10.070;2023-06-22T09:06:07;19.33;;;9.10;;
63738;SDS011;68816;45.558;10.070;2023-06-22T09:08:34;19.90;;;9.85;;
63738;SDS011;68816;45.558;10.070;2023-06-22T09:11:00;29.02;;;9.80;;
63738;SDS011;68816;45.558;10.070;2023-06-22T09:13:25;21.55;;;9.77;;
63738;SDS011;68816;45.558;10.070;2023-06-22T09:15:51;20.00;;;10.18;;
63738;SDS011;68816;45.558;10.070;2023-06-22T09:18:17;18.30;;;9.32;;
63738;SDS011;68816;45.558;10.070;2023-06-22T09:20:42;18.40;;;10.43;;
63738;SDS011;68816;45.558;10.070;2023-06-22T09:23:08;18.80;;;9.60;;
63738;SDS011;68816;45.558;10.070;2023-06-22T09:25:34;20.38;;;10.07;;
63738;SDS011;68816;45.558;10.070;2023-06-22T09:27:59;20.15;;;9.38;;
63738;SDS011;68816;45.558;10.070;2023-06-22T09:30:24;20.20;;;10.00;;
63738;SDS011;68816;45.558;10.070;2023-06-22T09:32:50;41.75;;;12.23;;
63738;SDS011;68816;45.558;10.070;2023-06-22T09:35:16;20.08;;;9.02;;
63738;SDS011;68816;45.558;10.070;2023-06-22T09:37:41;20.25;;;9.88;;
63738;SDS011;68816;45.558;10.070;2023-06-22T09:40:07;19.95;;;10.20;;
63738;SDS011;68816;45.558;10.070;2023-06-22T09:42:35;18.73;;;9.27;;
63738;SDS011;68816;45.558;10.070;2023-06-22T09:45:00;17.48;;;9.55;;
63738;SDS011;68816;45.558;10.070;2023-06-22T09:47:26;19.55;;;9.30;;
63738;SDS011;68816;45.558;10.070;2023-06-22T09:49:52;22.15;;;9.38;;
63738;SDS011;68816;45.558;10.070;2023-06-22T09:52:20;26.65;;;10.30;;
63738;SDS011;68816;45.558;10.070;2023-06-22T09:54:45;18.67;;;10.05;;
63738;SDS011;68816;45.558;10.070;2023-06-22T09:57:11;21.33;;;10.10;;
63738;SDS011;68816;45.558;10.070;2023-06-22T09:59:36;19.85;;;9.27;;
63738;SDS011;68816;45.558;10.070;2023-06-22T10:02:02;19.58;;;9.50;;
63738;SDS011;68816;45.558;10.070;2023-06-22T10:04:27;20.55;;;9.38;;
63738;SDS011;68816;45.558;10.070;2023-06-22T10:06:53;22.00;;;9.50;;
63738;SDS011;68816;45.558;10.070;2023-06-22T10:09:18;18.90;;;9.60;;
63738;SDS011;68816;45.558;10.070;2023-06-22T10:11:44;16.48;;;9.35;;
63738;SDS011;68816;45.558;10.070;2023-06-22T10:14:09;16.83;;;9.90;;
63738;SDS011;68816;45.558;10.070;2023-06-22T10:16:36;14.77;;;8.77;;
63738;SDS011;68816;45.558;10.070;2023-06-22T10:19:01;20.42;;;10.73;;
63738;SDS011;68816;45.558;10.070;2023-06-22T10:21:27;18.08;;;10.18;;
63738;SDS011;68816;45.558;10.070;2023-06-22T10:23:53;21.48;;;10.00;;
63738;SDS011;68816;45.558;10.070;2023-06-22T10:26:20;17.45;;;10.40;;
63738;SDS011;68816;45.558;10.070;2023-06-22T10:28:46;19.73;;;10.90;;
63738;SDS011;68816;45.558;10.070;2023-06-22T10:31:11;20.20;;;10.45;;
63738;SDS011;68816;45.558;10.070;2023-06-22T10:33:37;19.65;;;10.60;;
63738;SDS011;68816;45.558;10.070;2023-06-22T10:36:02;21.33;;;11.40;;
63738;SDS011;68816;45.558;10.070;2023-06-22T10:38:28;21.45;;;11.57;;
63738;SDS011;68816;45.558;10.070;2023-06-22T10:40:53;20.50;;;11.50;;
63738;SDS011;68816;45.558;10.070;2023-06-22T10:43:19;20.45;;;12.20;;
63738;SDS011;68816;45.558;10.070;2023-06-22T10:45:44;20.13;;;11.63;;
63738;SDS011;68816;45.558;10.070;2023-06-22T10:48:10;19.67;;;11.07;;
63738;SDS011;68816;45.558;10.070;2023-06-22T10:50:35;24.52;;;11.80;;
63738;SDS011;68816;45.558;10.070;2023-06-22T10:53:01;19.85;;;11.45;;
63738;SDS011;68816;45.558;10.070;2023-06-22T10:55:26;16.55;;;11.02;;
63738;SDS011;68816;45.558;10.070;2023-06-22T10:57:52;21.20;;;11.18;;
63738;SDS011;68816;45.558;10.070;2023-06-22T11:00:17;19.17;;;10.95;;
63738;SDS011;68816;45.558;10.070;2023-06-22T11:02:43;15.07;;;10.30;;
63738;SDS011;68816;45.558;10.070;2023-06-22T11:05:09;15.98;;;10.38;;
63738;SDS011;68816;45.558;10.070;2023-06-22T11:07:34;17.10;;;9.65;;
63738;SDS011;68816;45.558;10.070;2023-06-22T11:10:00;17.13;;;9.30;;
63738;SDS011;68816;45.558;10.070;2023-06-22T11:12:25;14.60;;;9.32;;
63738;SDS011;68816;45.558;10.070;2023-06-22T11:14:51;15.30;;;9.50;;
63738;SDS011;68816;45.558;10.070;2023-06-22T11:17:17;17.92;;;8.80;;
63738;SDS011;68816;45.558;10.070;2023-06-22T11:19:43;17.40;;;8.85;;
63738;SDS011;68816;45.558;10.070;2023-06-22T11:22:09;16.13;;;9.30;;
63738;SDS011;68816;45.558;10.070;2023-06-22T11:24:35;17.00;;;10.40;;
63738;SDS011;68816;45.558;10.070;2023-06-22T11:27:00;21.15;;;10.38;;
63738;SDS011;68816;45.558;10.070;2023-06-22T11:29:26;15.90;;;9.65;;
63738;SDS011;68816;45.558;10.070;2023-06-22T11:31:51;16.10;;;10.27;;
63738;SDS011;68816;45.558;10.070;2023-06-22T11:34:17;19.10;;;9.90;;
63738;SDS011;68816;45.558;10.070;2023-06-22T11:36:44;18.70;;;9.60;;
63738;SDS011;68816;45.558;10.070;2023-06-22T11:39:10;16.50;;;10.38;;
63738;SDS011;68816;45.558;10.070;2023-06-22T11:41:35;15.85;;;9.85;;
63738;SDS011;68816;45.558;10.070;2023-06-22T11:44:01;19.58;;;9.55;;
63738;SDS011;68816;45.558;10.070;2023-06-22T11:46:26;19.90;;;9.43;;
63738;SDS011;68816;45.558;10.070;2023-06-22T11:48:52;16.20;;;9.07;;
63738;SDS011;68816;45.558;10.070;2023-06-22T11:51:17;16.83;;;8.77;;
63738;SDS011;68816;45.558;10.070;2023-06-22T11:53:43;16.52;;;8.48;;
63738;SDS011;68816;45.558;10.070;2023-06-22T11:56:08;15.40;;;8.80;;
63738;SDS011;68816;45.558;10.070;2023-06-22T11:58:34;13.75;;;8.93;;
63738;SDS011;68816;45.558;10.070;2023-06-22T12:00:59;17.55;;;9.80;;
63738;SDS011;68816;45.558;10.070;2023-06-22T12:03:24;20.23;;;9.00;;
63738;SDS011;68816;45.558;10.070;2023-06-22T12:05:50;13.48;;;9.30;;
63738;SDS011;68816;45.558;10.070;2023-06-22T12:08:18;17.15;;;9.48;;
63738;SDS011;68816;45.558;10.070;2023-06-22T12:10:44;13.13;;;8.82;;
63738;SDS011;68816;45.558;10.070;2023-06-22T12:13:09;14.27;;;8.40;;
63738;SDS011;68816;45.558;10.070;2023-06-22T12:15:35;13.73;;;8.70;;
63738;SDS011;68816;45.558;10.070;2023-06-22T12:18:00;15.57;;;8.77;;
63738;SDS011;68816;45.558;10.070;2023-06-22T12:20:26;14.38;;;8.55;;
63738;SDS011;68816;45.558;10.070;2023-06-22T12:22:51;13.05;;;9.07;;
63738;SDS011;68816;45.558;10.070;2023-06-22T12:25:17;19.83;;;8.68;;
63738;SDS011;68816;45.558;10.070;2023-06-22T12:27:43;14.88;;;9.13;;
63738;SDS011;68816;45.558;10.070;2023-06-22T12:30:08;15.82;;;8.93;;
63738;SDS011;68816;45.558;10.070;2023-06-22T12:32:34;18.25;;;9.32;;
63738;SDS011;68816;45.558;10.070;2023-06-22T12:35:00;20.13;;;9.57;;
63738;SDS011;68816;45.558;10.070;2023-06-22T12:37:25;15.23;;;9.45;;
63738;SDS011;68816;45.558;10.070;2023-06-22T12:39:50;16.58;;;8.90;;
63738;SDS011;68816;45.558;10.070;2023-06-22T12:42:16;14.52;;;8.82;;
63738;SDS011;68816;45.558;10.070;2023-06-22T12:44:41;13.52;;;9.40;;
63738;SDS011;68816;45.558;10.070;2023-06-22T12:47:07;24.77;;;9.85;;
63738;SDS011;68816;45.558;10.070;2023-06-22T12:49:34;20.80;;;10.30;;
63738;SDS011;68816;45.558;10.070;2023-06-22T12:52:00;18.90;;;9.82;;
63738;SDS011;68816;45.558;10.070;2023-06-22T12:54:26;18.52;;;10.68;;
63738;SDS011;68816;45.558;10.070;2023-06-22T12:56:51;16.70;;;9.63;;
63738;SDS011;68816;45.558;10.070;2023-06-22T12:59:17;17.48;;;10.27;;
63738;SDS011;68816;45.558;10.070;2023-06-22T13:01:42;18.02;;;10.10;;
63738;SDS011;68816;45.558;10.070;2023-06-22T13:04:10;14.77;;;10.18;;
63738;SDS011;68816;45.558;10.070;2023-06-22T13:06:39;17.83;;;10.18;;
63738;SDS011;68816;45.558;10.070;2023-06-22T13:09:05;24.33;;;10.90;;
63738;SDS011;68816;45.558;10.070;2023-06-22T13:11:31;19.50;;;10.25;;
63738;SDS011;68816;45.558;10.070;2023-06-22T13:13:56;19.75;;;10.90;;
63738;SDS011;68816;45.558;10.070;2023-06-22T13:16:22;22.88;;;10.60;;
63738;SDS011;68816;45.558;10.070;2023-06-22T13:18:47;22.08;;;10.43;;
63738;SDS011;68816;45.558;10.070;2023-06-22T13:21:12;27.70;;;11.70;;
63738;SDS011;68816;45.558;10.070;2023-06-22T13:23:39;21.40;;;10.75;;
63738;SDS011;68816;45.558;10.070;2023-06-22T13:26:04;18.85;;;11.00;;
63738;SDS011;68816;45.558;10.070;2023-06-22T13:28:30;20.70;;;11.77;;
63738;SDS011;68816;45.558;10.070;2023-06-22T13:30:55;21.98;;;11.50;;
63738;SDS011;68816;45.558;10.070;2023-06-22T13:33:21;19.35;;;12.27;;
63738;SDS011;68816;45.558;10.070;2023-06-22T13:35:46;22.88;;;12.05;;
63738;SDS011;68816;45.558;10.070;2023-06-22T13:38:12;18.27;;;11.50;;
63738;SDS011;68816;45.558;10.070;2023-06-22T13:40:37;21.58;;;11.73;;
63738;SDS011;68816;45.558;10.070;2023-06-22T13:43:03;17.63;;;10.65;;
63738;SDS011;68816;45.558;10.070;2023-06-22T13:45:29;18.63;;;11.07;;
63738;SDS011;68816;45.558;10.070;2023-06-22T13:47:55;21.00;;;10.70;;
63738;SDS011;68816;45.558;10.070;2023-06-22T13:50:20;19.25;;;11.27;;
63738;SDS011;68816;45.558;10.070;2023-06-22T13:52:46;19.27;;;10.70;;
63738;SDS011;68816;45.558;10.070;2023-06-22T13:55:11;21.42;;;10.93;;
63738;SDS011;68816;45.558;10.070;2023-06-22T13:57:39;22.13;;;11.15;;
63738;SDS011;68816;45.558;10.070;2023-06-22T14:00:05;21.98;;;10.95;;
63738;SDS011;68816;45.558;10.070;2023-06-22T14:02:31;14.43;;;9.18;;
63738;SDS011;68816;45.558;10.070;2023-06-22T14:04:56;17.60;;;9.00;;
63738;SDS011;68816;45.558;10.070;2023-06-22T14:07:22;17.40;;;9.20;;
63738;SDS011;68816;45.558;10.070;2023-06-22T14:09:49;23.60;;;10.02;;
63738;SDS011;68816;45.558;10.070;2023-06-22T14:12:15;15.43;;;8.93;;
63738;SDS011;68816;45.558;10.070;2023-06-22T14:14:40;16.58;;;9.10;;
63738;SDS011;68816;45.558;10.070;2023-06-22T14:17:06;16.25;;;9.23;;
63738;SDS011;68816;45.558;10.070;2023-06-22T14:19:31;20.15;;;9.63;;